Beatrice, NE (68310)

9:02 AM CST on December 03, 2016 (GMT -0600)
Beatrice Municipal | | Change Station

Elev 1322 ft 40.30 °N, 96.75 °W | Updated 7 minutes ago

Overcast
Overcast
32 °F
Feels Like 26 °F
N
7
Wind Variable Wind from SSE

Today
High -- | Low -- °F
--% Chance of Precip.
Yesterday
High -- | Low -- °F
Precip. -- in
Pressure 30.26 in
Visibility 7.0 miles
Clouds Mostly Cloudy 6500 ft
Overcast 8000 ft
Windchill 26 °F
Dew Point 30 °F
Humidity 91%
Rainfall 0.00 in
Snow Depth Not available.
7:32 AM 5:01 PM
Waxing Crescent, 15% visible
METAR KBIE 031455Z AUTO 16006KT 7SM BKN065 OVC080 00/M01 A3026 RMK AO2 T00021011
Pressure 30.26 in
Visibility 7.0 miles
Clouds Mostly Cloudy 6500 ft
Overcast 8000 ft
Windchill 26 °F
Dew Point 30 °F
Humidity 91%
Rainfall 0.00 in
Snow Depth Not available.
7:32 AM 5:01 PM
Waxing Crescent, 15% visible
METAR KBIE 031455Z AUTO 16006KT 7SM BKN065 OVC080 00/M01 A3026 RMK AO2 T00021011

10-Day Weather Forecast

Almanac

Astronomy

Dec. 03, 2016 Rise Set
Actual Time
Civil Twilight
Nautical Twilight
Astronomical Twilight
Moon
Length of Visible Light
Length of Day
Tomorrow will be .
, % of the Moon is Illuminated

Today's Extremes

State Highs State Lows

Community

WunderPhotos

Upload Photos

1,955,456 photos uploaded!

WunderBlog® & News

Nearby

Air Quality

  Air Quality AQ Index Pollutant
Not available.

Snow Depth

Station Depth Elevation

Earthquake Activity

City Distance Mag. Time & Date
Minimum magnitude displayed is 2.5.

Coastal Water Temperatures

Place Temperature

Stations

Nearby Weather Stations

Station Location Temp. Windchill Dew Point Humidity Wind Precip. Elev Updated Type
                   

Watches & Warnings

There are currently no watches in effect.